Time;durP1;ratioP1;P1;durP2;ratioP2;P2;SDS_P1;SDS_P2;PMS_P1;PMS_P2;Temp;Humidity;BMP_temperature;BMP_pressure;BME280_temperature;BME280_humidity;BME280_pressure;Samples;Min_cycle;Max_cycle;Signal;HPM_P1;HPM_P2
2021/09/09 00:01:17;;;;;;;;;20.00;20.00;;;;;22.51;73.73;100569.91;5059499;28;45431;-74
2021/09/09 00:03:43;;;;;;;;;19.67;19.33;;;;;22.47;74.02;100561.47;5060481;28;45240;-74
2021/09/09 00:06:08;;;;;;;;;15.67;13.67;;;;;22.45;74.09;100564.44;5058978;28;48106;-74
2021/09/09 00:08:33;;;;;;;;;16.33;16.33;;;;;22.43;74.80;100558.47;5060595;28;45299;-74
2021/09/09 00:10:59;;;;;;;;;19.33;19.33;;;;;22.39;74.54;100543.81;5058952;28;45305;-74
2021/09/09 00:13:24;;;;;;;;;18.67;17.00;;;;;22.37;74.49;100553.28;5060497;28;45531;-74
2021/09/09 00:15:50;;;;;;;;;17.00;16.00;;;;;22.34;75.08;100549.19;5059540;28;46166;-74
2021/09/09 00:18:15;;;;;;;;;14.67;14.67;;;;;22.34;74.88;100549.19;5059113;28;45321;-75
2021/09/09 00:20:41;;;;;;;;;18.67;18.00;;;;;22.30;75.10;100550.78;5060311;28;45290;-74
2021/09/09 00:23:06;;;;;;;;;15.33;15.33;;;;;22.30;74.92;100556.22;5059999;28;45231;-74
2021/09/09 00:25:32;;;;;;;;;19.00;19.00;;;;;22.31;75.04;100553.25;5059857;28;45750;-74
2021/09/09 00:27:57;;;;;;;;;15.67;15.00;;;;;22.27;74.80;100548.59;5058858;28;46098;-74
2021/09/09 00:30:23;;;;;;;;;18.33;18.33;;;;;22.25;74.60;100550.75;5069303;28;45527;-75
2021/09/09 00:32:49;;;;;;;;;19.00;19.00;;;;;22.20;74.88;100537.97;5080445;28;45470;-74
2021/09/09 00:35:14;;;;;;;;;15.67;15.67;;;;;22.23;75.23;100545.59;5079784;28;45354;-74
2021/09/09 00:37:40;;;;;;;;;19.00;19.00;;;;;22.19;74.68;100544.47;5080324;28;45246;-74
2021/09/09 00:40:07;;;;;;;;;16.33;16.33;;;;;22.15;74.72;100533.34;5074254;28;45450;-74
2021/09/09 00:42:32;;;;;;;;;17.00;17.00;;;;;22.11;75.30;100534.94;5058514;28;47487;-74
2021/09/09 00:44:57;;;;;;;;;19.00;17.00;;;;;22.11;74.77;100534.09;5059753;28;46122;-75
2021/09/09 00:47:23;;;;;;;;;16.33;16.33;;;;;22.10;74.93;100546.00;5059867;28;45267;-74
2021/09/09 00:49:48;;;;;;;;;17.33;16.33;;;;;22.09;75.17;100550.63;5059963;28;45309;-74
2021/09/09 00:52:14;;;;;;;;;13.67;13.67;;;;;22.05;74.84;100557.59;5059713;28;45446;-75
2021/09/09 00:54:45;;;;;;;;;16.67;16.67;;;;;22.00;74.91;100549.44;5058178;28;47504;-74
2021/09/09 00:57:11;;;;;;;;;14.33;14.33;;;;;21.97;74.54;100548.06;5059467;28;45416;-75
2021/09/09 00:59:36;;;;;;;;;17.00;16.00;;;;;21.93;75.71;100547.75;5059825;28;45506;-75
2021/09/09 01:02:03;;;;;;;;;14.67;14.00;;;;;21.91;75.60;100543.69;5059600;28;45541;-74
2021/09/09 01:04:29;;;;;;;;;15.00;15.00;;;;;21.88;75.57;100553.09;5059268;28;46413;-74
2021/09/09 01:06:56;;;;;;;;;13.33;12.33;;;;;21.82;75.08;100549.53;5059465;28;45261;-74
2021/09/09 01:09:23;;;;;;;;;15.33;15.33;;;;;21.79;75.09;100546.53;5058423;28;45796;-74
2021/09/09 01:11:48;;;;;;;;;12.67;11.67;;;;;21.78;75.42;100545.72;5059087;28;45309;-74
2021/09/09 01:14:16;;;;;;;;;13.67;13.67;;;;;21.76;75.77;100545.13;5059280;28;45247;-74
2021/09/09 01:16:43;;;;;;;;;15.00;14.00;;;;;21.74;75.58;100539.16;5058074;28;45736;-74
2021/09/09 01:19:10;;;;;;;;;12.33;12.33;;;;;21.73;75.18;100534.81;5059392;28;45264;-74
2021/09/09 01:21:37;;;;;;;;;10.33;9.67;;;;;21.68;75.60;100540.16;5059301;28;45228;-74
2021/09/09 01:24:07;;;;;;;;;14.33;14.33;;;;;21.69;75.85;100547.19;5059329;28;46403;-74
2021/09/09 01:26:47;;;;;;;;;12.67;12.33;;;;;21.67;75.81;100555.56;5058243;28;45503;-74
2021/09/09 01:29:12;;;;;;;;;15.67;13.33;;;;;21.65;76.09;100565.00;5059558;28;45309;-77
2021/09/09 01:31:38;;;;;;;;;15.00;14.33;;;;;21.64;75.95;100571.50;5078361;28;45614;-74
2021/09/09 01:34:03;;;;;;;;;13.00;13.00;;;;;21.63;76.17;100580.66;5079325;27;45235;-74
2021/09/09 01:36:29;;;;;;;;;15.00;15.00;;;;;21.63;75.70;100575.25;5079400;27;45145;-74
2021/09/09 01:38:54;;;;;;;;;16.33;15.00;;;;;21.62;75.98;100579.88;5079758;28;45329;-74
2021/09/09 01:41:19;;;;;;;;;14.00;14.00;;;;;21.61;76.87;100574.72;5079509;27;45548;-74
2021/09/09 01:43:44;;;;;;;;;13.67;13.67;;;;;21.61;76.63;100575.50;5079291;27;45994;-75
2021/09/09 01:46:10;;;;;;;;;13.33;12.33;;;;;21.60;76.33;100583.88;5064897;27;45280;-74
2021/09/09 01:48:35;;;;;;;;;13.33;12.67;;;;;21.60;76.15;100583.88;5059007;28;45317;-74
2021/09/09 01:51:01;;;;;;;;;16.67;15.00;;;;;21.61;76.81;100583.63;5057459;28;46134;-75
2021/09/09 01:53:26;;;;;;;;;14.33;14.33;;;;;21.63;76.57;100586.91;5061103;28;45338;-75
2021/09/09 01:55:51;;;;;;;;;18.33;14.67;;;;;21.61;76.39;100591.72;5062744;28;45327;-75
2021/09/09 01:58:17;;;;;;;;;12.67;12.67;;;;;21.63;76.90;100586.06;5062239;28;45412;-74
2021/09/09 02:00:42;;;;;;;;;14.67;14.33;;;;;21.61;75.94;100575.50;5062670;28;45322;-75
2021/09/09 02:03:08;;;;;;;;;14.00;14.00;;;;;21.64;76.29;100588.53;5062264;28;45955;-74
2021/09/09 02:05:33;;;;;;;;;17.33;16.00;;;;;21.60;76.98;100576.59;5062237;28;45315;-75
2021/09/09 02:07:58;;;;;;;;;13.67;13.67;;;;;21.61;76.46;100580.13;5062302;28;45622;-74
2021/09/09 02:10:24;;;;;;;;;17.00;14.00;;;;;21.63;76.79;100580.66;5062241;28;45315;-74
2021/09/09 02:12:50;;;;;;;;;17.00;17.00;;;;;21.62;76.42;100576.34;5062116;28;46350;-75
2021/09/09 02:15:16;;;;;;;;;16.00;16.00;;;;;21.61;76.97;100569.28;5062004;28;45357;-75
2021/09/09 02:17:41;;;;;;;;;13.67;13.67;;;;;21.59;76.52;100571.44;5061055;28;45228;-74
2021/09/09 02:20:08;;;;;;;;;12.33;12.00;;;;;21.61;76.36;100575.50;5061863;28;45401;-74
2021/09/09 02:22:33;;;;;;;;;14.00;13.33;;;;;21.57;76.90;100572.50;5061882;28;45314;-76
2021/09/09 02:24:59;;;;;;;;;18.33;18.33;;;;;21.57;76.80;100571.69;5062064;28;45280;-76
2021/09/09 02:27:24;;;;;;;;;18.33;18.33;;;;;21.53;76.58;100567.84;5062337;28;45240;-74
2021/09/09 02:29:50;;;;;;;;;16.00;15.33;;;;;21.50;76.86;100571.88;5066424;28;45436;-74
2021/09/09 02:32:15;;;;;;;;;14.33;14.33;;;;;21.49;76.83;100572.13;5082270;28;45346;-74
2021/09/09 02:34:41;;;;;;;;;16.67;16.67;;;;;21.46;76.32;100576.13;5080408;28;45386;-75
2021/09/09 02:37:06;;;;;;;;;16.33;15.67;;;;;;;;5082301;28;45606;-75
2021/09/09 02:39:31;;;;;;;;;15.00;15.00;;;;;21.44;76.34;100581.00;5082278;28;45381;-75
2021/09/09 02:41:57;;;;;;;;;17.33;15.67;;;;;21.39;76.41;100581.75;5081825;28;45961;-75
2021/09/09 02:44:23;;;;;;;;;15.67;15.67;;;;;21.37;76.08;100588.47;5061514;28;45383;-75
2021/09/09 02:46:48;;;;;;;;;18.33;17.33;;;;;21.31;76.70;100588.41;5062030;28;45288;-75
2021/09/09 02:49:13;;;;;;;;;17.33;16.33;;;;;21.28;76.39;100585.41;5061710;28;45331;-74
2021/09/09 02:51:39;;;;;;;;;16.00;15.00;;;;;21.29;76.32;100579.75;5061656;28;45272;-74
2021/09/09 02:54:04;;;;;;;;;15.33;15.33;;;;;21.27;76.39;100570.22;5061694;28;45237;-74
2021/09/09 02:56:31;;;;;;;;;16.33;14.67;;;;;21.26;76.50;100574.84;5061887;28;45318;-74
2021/09/09 02:58:58;;;;;;;;;14.67;14.00;;;;;21.22;76.33;100568.28;5060033;28;45434;-74
2021/09/09 03:01:25;;;;;;;;;16.67;16.33;;;;;21.20;76.21;100559.63;5061416;28;46083;-74
2021/09/09 03:03:50;;;;;;;;;12.33;11.67;;;;;21.15;76.91;100556.84;5059810;28;45513;-74
2021/09/09 03:06:15;;;;;;;;;15.00;15.00;;;;;21.12;77.03;100555.47;5061310;28;45384;-74
2021/09/09 03:08:41;;;;;;;;;18.00;17.00;;;;;21.13;76.66;100561.69;5061544;28;45292;-75
2021/09/09 03:11:06;;;;;;;;;18.00;17.33;;;;;21.11;76.76;100569.22;5061299;28;46088;-74
2021/09/09 03:13:31;;;;;;;;;19.33;17.33;;;;;21.09;76.62;100552.44;5061131;28;45433;-74
2021/09/09 03:15:57;;;;;;;;;17.00;15.33;;;;;21.04;76.68;100548.59;5061374;28;45555;-74
2021/09/09 03:18:22;;;;;;;;;18.33;16.67;;;;;21.01;76.68;100554.50;5061320;28;45478;-74
2021/09/09 03:20:47;;;;;;;;;20.00;17.67;;;;;21.01;77.21;100559.91;5061086;28;45326;-74
2021/09/09 03:23:13;;;;;;;;;17.67;16.33;;;;;21.02;77.26;100561.56;5061096;28;45310;-74
2021/09/09 03:25:38;;;;;;;;;17.67;17.00;;;;;21.03;77.23;100557.78;5061454;28;45973;-75
2021/09/09 03:28:04;;;;;;;;;15.67;15.67;;;;;21.04;77.15;100559.41;5061237;28;45310;-74
2021/09/09 03:30:29;;;;;;;;;16.00;15.67;;;;;21.01;77.24;100554.50;5060671;28;45290;-74
2021/09/09 03:32:54;;;;;;;;;19.33;18.00;;;;;21.01;77.02;100556.41;5061156;28;45314;-74
2021/09/09 03:35:20;;;;;;;;;19.33;18.00;;;;;21.01;77.32;100557.19;5060812;28;45719;-75
2021/09/09 03:37:45;;;;;;;;;19.33;18.67;;;;;21.03;77.48;100556.94;5061065;28;45481;-74
2021/09/09 03:40:11;;;;;;;;;19.67;19.33;;;;;21.03;77.04;100567.75;5060586;28;46353;-74
2021/09/09 03:42:37;;;;;;;;;20.33;20.33;;;;;21.03;77.27;100563.19;5060863;28;45177;-74
2021/09/09 03:45:04;;;;;;;;;19.00;17.33;;;;;21.03;77.59;100554.25;5059529;28;45292;-74
2021/09/09 03:47:29;;;;;;;;;21.33;20.00;;;;;21.00;77.47;100558.28;5060858;28;45176;-74
2021/09/09 03:49:54;;;;;;;;;22.00;21.67;;;;;21.04;76.91;100564.81;5059168;28;47884;-74
2021/09/09 03:52:20;;;;;;;;;20.00;20.00;;;;;21.03;77.41;100556.94;5060815;28;45224;-75
2021/09/09 03:54:45;;;;;;;;;18.67;17.67;;;;;21.06;77.21;100565.38;5060826;28;45350;-74
2021/09/09 03:57:10;;;;;;;;;24.00;21.67;;;;;21.07;77.38;100558.06;5059033;28;45913;-74
2021/09/09 03:59:36;;;;;;;;;20.67;20.67;;;;;21.06;77.66;100559.16;5060769;28;45365;-74
2021/09/09 04:02:03;;;;;;;;;19.67;19.67;;;;;21.08;77.59;100565.13;5060571;28;45373;-75
2021/09/09 04:04:31;;;;;;;;;20.00;20.00;;;;;21.08;77.65;100559.72;5060669;28;45412;-74
2021/09/09 04:06:57;;;;;;;;;21.67;21.67;;;;;21.10;77.70;100565.69;5061084;28;45454;-74
2021/09/09 04:09:22;;;;;;;;;23.00;22.67;;;;;21.12;77.72;100560.03;5060494;28;45274;-74
2021/09/09 04:11:48;;;;;;;;;20.33;19.33;;;;;21.12;78.04;100543.81;5060207;28;45256;-74
2021/09/09 04:14:14;;;;;;;;;20.00;20.00;;;;;21.13;77.47;100546.28;5058948;28;45343;-74
2021/09/09 04:16:39;;;;;;;;;22.00;22.00;;;;;21.13;77.74;100551.69;5059587;28;45545;-74
2021/09/09 04:19:05;;;;;;;;;23.67;21.33;;;;;21.15;78.33;100546.84;5060177;28;45280;-74
2021/09/09 04:21:30;;;;;;;;;25.33;24.67;;;;;21.16;78.03;100547.69;5060044;28;45414;-75
2021/09/09 04:23:56;;;;;;;;;23.00;23.00;;;;;21.13;78.04;100535.47;5060295;28;45294;-75
2021/09/09 04:26:21;;;;;;;;;25.67;24.67;;;;;21.14;77.58;100530.91;5060244;28;45473;-75
2021/09/09 04:28:46;;;;;;;;;24.33;23.33;;;;;21.12;77.81;100530.31;5058956;28;47177;-74
2021/09/09 04:31:12;;;;;;;;;25.67;22.67;;;;;21.08;77.84;100527.31;5059629;28;45390;-74
2021/09/09 04:33:37;;;;;;;;;28.00;26.33;;;;;21.07;78.25;100525.66;5060331;28;45330;-74
2021/09/09 04:36:03;;;;;;;;;24.33;23.67;;;;;21.07;77.91;100522.97;5058400;28;46173;-74
2021/09/09 04:38:29;;;;;;;;;25.33;24.33;;;;;21.06;78.18;100522.16;5059680;28;45322;-74
2021/09/09 04:40:54;;;;;;;;;26.67;25.33;;;;;21.06;77.88;100524.88;5059947;28;45340;-74
2021/09/09 04:43:19;;;;;;;;;28.00;23.67;;;;;21.08;78.75;100527.31;5059932;28;45329;-74
2021/09/09 04:45:45;;;;;;;;;28.33;27.33;;;;;21.09;78.48;100522.72;5059504;28;45286;-74
2021/09/09 04:48:10;;;;;;;;;27.00;24.67;;;;;21.06;77.77;100515.94;5059810;28;46290;-75
2021/09/09 04:50:36;;;;;;;;;28.33;26.67;;;;;21.04;77.93;100513.47;5059747;28;45250;-74
2021/09/09 04:53:01;;;;;;;;;27.67;27.67;;;;;21.03;78.12;100509.16;5058523;28;45251;-74
2021/09/09 04:55:27;;;;;;;;;28.67;28.00;;;;;21.04;78.23;100505.38;5059457;28;45261;-74
2021/09/09 04:57:52;;;;;;;;;28.67;28.00;;;;;21.00;77.92;100501.53;5059801;28;46182;-75
2021/09/09 05:00:18;;;;;;;;;26.33;25.33;;;;;21.02;78.01;100504.81;5059607;28;45253;-74
2021/09/09 05:02:43;;;;;;;;;25.67;25.67;;;;;21.00;77.90;100509.66;5059839;28;45270;-74
2021/09/09 05:05:09;;;;;;;;;29.33;28.00;;;;;20.99;77.85;100518.84;5059595;28;45605;-75
2021/09/09 05:07:35;;;;;;;;;25.67;25.67;;;;;21.00;78.41;100525.03;5059072;28;46208;-75
2021/09/09 05:10:01;;;;;;;;;29.67;27.00;;;;;21.00;78.05;100519.63;5059725;28;45365;-74
2021/09/09 05:12:26;;;;;;;;;26.00;24.67;;;;;21.01;78.25;100529.38;5059483;28;45300;-72
2021/09/09 05:14:52;;;;;;;;;28.67;28.00;;;;;21.03;78.52;100535.34;5058120;28;47315;-74
2021/09/09 05:17:17;;;;;;;;;26.67;26.00;;;;;21.05;78.64;100536.75;5059560;28;45331;-74
2021/09/09 05:19:43;;;;;;;;;35.67;32.33;;;;;21.09;78.10;100530.81;5059272;28;45275;-72
2021/09/09 05:22:08;;;;;;;;;31.33;28.33;;;;;21.13;78.83;100534.66;5059087;28;45498;-74
2021/09/09 05:24:33;;;;;;;;;29.33;28.67;;;;;21.13;78.47;100535.47;5059526;28;45323;-73
2021/09/09 05:26:59;;;;;;;;;40.67;33.33;;;;;21.15;78.25;100537.91;5057700;28;46905;-73
2021/09/09 05:29:24;;;;;;;;;33.00;30.00;;;;;21.20;78.72;100538.00;5063913;28;45398;-73
2021/09/09 05:31:49;;;;;;;;;35.00;32.00;;;;;21.24;78.20;100539.13;5080857;28;45305;-74
2021/09/09 05:34:16;;;;;;;;;38.67;33.67;;;;;21.23;78.39;100542.91;5061816;28;45429;-73
2021/09/09 05:36:41;;;;;;;;;36.33;33.00;;;;;21.25;78.79;100542.66;5062421;28;46354;-74
2021/09/09 05:39:07;;;;;;;;;35.67;32.00;;;;;21.27;78.60;100546.72;5062379;28;45287;-73
2021/09/09 05:41:32;;;;;;;;;40.00;34.33;;;;;21.30;78.34;100559.75;5062458;28;45234;-73
2021/09/09 05:43:57;;;;;;;;;36.00;32.00;;;;;21.33;78.25;100558.41;5062130;28;45465;-73
2021/09/09 05:46:23;;;;;;;;;35.67;32.00;;;;;21.37;78.20;100559.53;5062366;28;45283;-73
2021/09/09 05:48:48;;;;;;;;;39.67;33.00;;;;;21.40;78.21;100560.94;5061705;28;45295;-73
2021/09/09 05:51:14;;;;;;;;;35.00;31.67;;;;;21.39;78.41;100559.28;5062769;28;45224;-73
2021/09/09 05:53:39;;;;;;;;;33.67;29.67;;;;;21.43;78.35;100565.84;5062720;28;45216;-74
2021/09/09 05:56:05;;;;;;;;;35.67;31.67;;;;;21.46;78.07;100561.81;5062629;28;46711;-74
2021/09/09 05:58:30;;;;;;;;;34.67;32.00;;;;;21.46;78.22;100570.72;5062624;28;45216;-75
2021/09/09 06:00:56;;;;;;;;;40.00;33.33;;;;;21.52;78.22;100566.22;5062465;28;45499;-73
2021/09/09 06:03:25;;;;;;;;;33.00;30.67;;;;;21.56;77.97;100570.06;5062144;28;45287;-73
2021/09/09 06:05:53;;;;;;;;;28.33;26.00;;;;;21.57;78.33;100577.09;5059864;28;45453;-73
2021/09/09 06:08:18;;;;;;;;;35.00;32.00;;;;;21.58;78.40;100576.03;5062143;28;45721;-73
2021/09/09 06:10:43;;;;;;;;;39.67;33.67;;;;;21.61;78.36;100583.63;5062583;28;45453;-73
2021/09/09 06:13:09;;;;;;;;;34.00;31.67;;;;;21.63;78.36;100584.19;5060946;28;46731;-72
2021/09/09 06:15:34;;;;;;;;;35.33;31.67;;;;;21.64;78.37;100585.81;5062162;28;46138;-73
2021/09/09 06:17:59;;;;;;;;;39.33;33.00;;;;;21.66;77.73;100575.56;5062496;28;45145;-72
2021/09/09 06:20:25;;;;;;;;;43.00;35.67;;;;;21.67;77.49;100592.63;5062206;28;45200;-73
2021/09/09 06:22:50;;;;;;;;;34.67;31.00;;;;;21.67;77.54;100604.25;5062177;28;45547;-73
2021/09/09 06:25:16;;;;;;;;;35.67;33.00;;;;;21.66;77.97;100602.63;5061803;28;46133;-73
2021/09/09 06:27:41;;;;;;;;;41.00;35.67;;;;;21.68;77.45;100610.47;5062141;28;45280;-73
2021/09/09 06:30:07;;;;;;;;;31.67;30.00;;;;;21.68;77.99;100608.59;5060808;28;45332;-73
2021/09/09 06:32:32;;;;;;;;;38.00;33.67;;;;;21.71;78.04;100615.38;5058588;28;45543;-73
2021/09/09 06:34:58;;;;;;;;;40.67;34.67;;;;;21.72;77.30;100600.78;5061030;28;45884;-73
2021/09/09 06:37:23;;;;;;;;;41.33;34.33;;;;;21.74;77.52;100600.53;5060850;28;45439;-73
2021/09/09 06:39:48;;;;;;;;;40.33;34.33;;;;;21.76;77.34;100604.63;5061096;28;45339;-73
2021/09/09 06:42:14;;;;;;;;;37.33;32.33;;;;;21.75;77.33;100608.44;5061491;28;45391;-73
2021/09/09 06:44:39;;;;;;;;;34.00;31.67;;;;;21.73;77.82;100610.53;5060417;28;45339;-72
2021/09/09 06:47:05;;;;;;;;;43.67;35.67;;;;;21.72;78.11;100610.78;5061238;28;45461;-72
2021/09/09 06:49:30;;;;;;;;;41.33;34.67;;;;;21.70;77.89;100606.44;5061590;28;45263;-74
2021/09/09 06:51:55;;;;;;;;;42.33;34.67;;;;;21.70;77.64;100605.66;5061628;28;45346;-74
2021/09/09 06:54:21;;;;;;;;;61.25;49.00;;;;;21.73;77.84;100615.13;5061603;28;45290;-74
2021/09/09 06:56:46;;;;;;;;;42.33;36.67;;;;;21.75;77.86;100612.97;5061431;28;45322;-74
2021/09/09 06:59:11;;;;;;;;;41.33;34.33;;;;;21.74;77.77;100611.34;5061837;28;45975;-74
2021/09/09 07:01:37;;;;;;;;;43.33;34.67;;;;;21.78;78.09;100621.44;5061540;28;45243;-74
2021/09/09 07:04:02;;;;;;;;;42.33;35.67;;;;;21.82;77.95;100624.47;5059833;28;48251;-74
2021/09/09 07:06:27;;;;;;;;;41.33;36.33;;;;;21.84;77.63;100622.31;5061517;28;45208;-73
2021/09/09 07:08:53;;;;;;;;;44.33;37.67;;;;;21.86;77.44;100620.19;5061632;28;45285;-73
2021/09/09 07:11:18;;;;;;;;;43.67;36.33;;;;;21.89;78.02;100621.56;5060197;28;46540;-74
2021/09/09 07:13:44;;;;;;;;;45.00;38.67;;;;;21.93;78.01;100619.97;5061445;28;45260;-74
2021/09/09 07:16:09;;;;;;;;;42.33;36.00;;;;;21.92;77.42;100627.28;5061197;28;45291;-74
2021/09/09 07:18:34;;;;;;;;;41.00;34.00;;;;;21.91;77.41;100619.44;5061598;28;45211;-73
2021/09/09 07:21:01;;;;;;;;;45.00;35.33;;;;;21.90;77.05;100621.31;5061012;28;45286;-73
2021/09/09 07:23:26;;;;;;;;;42.67;36.67;;;;;21.90;77.48;100628.59;5061246;28;45730;-74
2021/09/09 07:25:52;;;;;;;;;45.33;38.00;;;;;21.86;77.50;100616.66;5061157;28;45291;-74
2021/09/09 07:28:18;;;;;;;;;41.33;36.33;;;;;21.85;77.46;100623.94;5061392;28;45319;-73
2021/09/09 07:30:43;;;;;;;;;46.00;38.33;;;;;21.86;77.90;100616.66;5072943;28;45350;-73
2021/09/09 07:33:09;;;;;;;;;45.00;37.00;;;;;21.85;77.86;100610.41;5081414;27;45313;-73
2021/09/09 07:35:34;;;;;;;;;43.67;37.00;;;;;21.81;77.44;100612.00;5081011;28;45266;-74
2021/09/09 07:38:00;;;;;;;;;43.00;36.33;;;;;21.83;77.86;100615.28;5081330;28;45441;-74
2021/09/09 07:40:26;;;;;;;;;42.67;35.67;;;;;21.88;77.73;100614.53;5081389;28;45296;-74
2021/09/09 07:42:51;;;;;;;;;47.33;39.00;;;;;21.92;77.87;100623.75;5079857;28;46999;-74
2021/09/09 07:45:16;;;;;;;;;44.00;37.67;;;;;21.92;78.10;100618.34;5081074;28;45250;-74
2021/09/09 07:47:42;;;;;;;;;41.67;35.00;;;;;21.91;77.75;100616.72;5081371;28;45250;-73
2021/09/09 07:50:08;;;;;;;;;44.67;37.00;;;;;21.94;77.55;100622.44;5079871;28;45207;-74
2021/09/09 07:52:35;;;;;;;;;43.33;37.00;;;;;21.96;77.96;100624.09;5080949;28;45263;-74
2021/09/09 07:55:00;;;;;;;;;42.67;36.67;;;;;22.00;78.04;100634.13;5081179;28;45236;-73
2021/09/09 07:57:25;;;;;;;;;40.00;35.00;;;;;22.04;77.40;100635.25;5081155;28;45205;-74
2021/09/09 07:59:51;;;;;;;;;46.00;38.67;;;;;22.09;77.76;100633.69;5081106;28;45336;-74
2021/09/09 08:02:17;;;;;;;;;42.00;36.33;;;;;22.11;77.81;100634.22;5080778;27;45982;-74
2021/09/09 08:04:42;;;;;;;;;43.67;37.00;;;;;22.12;77.32;100631.25;5080750;28;45286;-74
2021/09/09 08:07:08;;;;;;;;;45.00;37.33;;;;;22.11;76.95;100629.63;5081014;27;45426;-74
2021/09/09 08:09:33;;;;;;;;;43.67;34.33;;;;;22.11;77.48;100637.75;5080834;28;45322;-73
2021/09/09 08:11:59;;;;;;;;;43.00;36.67;;;;;22.12;77.00;100630.47;5080726;28;46312;-73
2021/09/09 08:14:24;;;;;;;;;42.33;36.67;;;;;22.14;77.25;100625.59;5080740;27;45282;-74
2021/09/09 08:16:49;;;;;;;;;43.67;36.67;;;;;22.12;76.95;100627.75;5080725;28;45479;-73
2021/09/09 08:19:15;;;;;;;;;40.00;33.00;;;;;22.11;77.29;100624.22;5080628;28;45305;-73
2021/09/09 08:21:41;;;;;;;;;40.00;34.33;;;;;22.13;77.55;100630.22;5080383;28;45270;-74
2021/09/09 08:24:07;;;;;;;;;42.00;35.33;;;;;22.17;77.34;100627.78;5080703;27;45316;-74
2021/09/09 08:26:32;;;;;;;;;42.67;34.33;;;;;22.22;77.38;100637.84;5080667;28;45176;-74
2021/09/09 08:28:57;;;;;;;;;40.67;35.67;;;;;22.27;77.14;100641.44;5080585;28;45460;-74
2021/09/09 08:31:23;;;;;;;;;39.67;34.67;;;;;22.25;76.77;100624.66;5062672;28;46306;-73
2021/09/09 08:33:48;;;;;;;;;43.00;35.67;;;;;22.30;76.42;100632.00;5059984;28;45255;-74
2021/09/09 08:36:16;;;;;;;;;42.00;36.67;;;;;22.32;77.07;100633.38;5060148;28;45666;-73
2021/09/09 08:38:41;;;;;;;;;41.67;36.67;;;;;22.33;77.05;100637.69;5058747;28;46201;-74
2021/09/09 08:41:07;;;;;;;;;45.00;36.67;;;;;22.36;76.86;100638.28;5059331;28;46071;-73
2021/09/09 08:43:33;;;;;;;;;49.25;41.00;;;;;22.35;77.00;100640.16;5059827;28;45377;-74
2021/09/09 08:46:00;;;;;;;;;39.00;33.67;;;;;22.33;77.21;100643.13;5060052;28;45406;-73
2021/09/09 08:48:27;;;;;;;;;42.67;36.67;;;;;22.33;76.58;100635.00;5059222;28;45281;-72
2021/09/09 08:50:53;;;;;;;;;38.67;34.67;;;;;22.33;76.74;100645.81;5059542;28;46175;-72
2021/09/09 08:53:19;;;;;;;;;42.33;36.00;;;;;22.35;77.28;100648.28;5059279;28;45331;-72
2021/09/09 08:55:44;;;;;;;;;40.67;35.33;;;;;22.35;77.01;100653.69;5059748;28;45224;-74
2021/09/09 08:58:10;;;;;;;;;36.67;32.33;;;;;22.37;76.59;100654.25;5059346;28;45433;-72
2021/09/09 09:00:36;;;;;;;;;41.00;34.67;;;;;22.39;76.35;100643.19;5057207;28;45437;-72
2021/09/09 09:03:01;;;;;;;;;44.33;37.00;;;;;22.44;76.52;100656.75;5057439;28;45300;-72
2021/09/09 09:05:29;;;;;;;;;40.00;34.00;;;;;22.45;76.38;100655.69;5059656;28;45349;-72
2021/09/09 09:08:02;;;;;;;;;39.00;34.00;;;;;22.43;76.91;100655.13;5059416;28;45343;-72
2021/09/09 09:10:29;;;;;;;;;37.00;33.33;;;;;22.43;76.80;100658.66;5058231;28;46286;-72
2021/09/09 09:12:55;;;;;;;;;38.00;34.00;;;;;22.47;76.87;100669.78;5059457;28;45360;-73
2021/09/09 09:15:26;;;;;;;;;37.67;34.00;;;;;22.48;76.21;100666.00;5059250;28;45364;-73
2021/09/09 09:17:55;;;;;;;;;41.67;35.33;;;;;22.48;76.62;100668.72;5058222;28;47159;-73
2021/09/09 09:20:21;;;;;;;;;43.00;35.67;;;;;22.46;76.47;100670.84;5058942;28;47150;-73
2021/09/09 09:22:46;;;;;;;;;39.00;33.00;;;;;22.46;76.82;100665.44;5058000;28;45205;-73
2021/09/09 09:25:12;;;;;;;;;40.00;34.33;;;;;22.43;75.90;100664.06;5058695;28;45436;-73
2021/09/09 09:27:48;;;;;;;;;35.00;32.00;;;;;22.38;76.25;100669.41;5057607;28;45363;-72
2021/09/09 09:30:14;;;;;;;;;42.67;35.67;;;;;22.37;75.90;100666.97;5065388;28;47259;-73
2021/09/09 09:32:51;;;;;;;;;42.00;35.67;;;;;22.34;75.71;100673.72;5079348;28;45294;-72
2021/09/09 09:35:18;;;;;;;;;43.67;37.00;;;;;22.36;75.84;100676.16;5077746;28;45299;-73
2021/09/09 09:37:53;;;;;;;;;45.67;37.00;;;;;22.35;75.68;100677.25;5061214;28;45442;-72
2021/09/09 09:40:27;;;;;;;;;39.67;34.00;;;;;22.33;76.31;100677.50;5056796;28;45869;-72
2021/09/09 09:42:54;;;;;;;;;38.33;33.00;;;;;22.32;76.50;100682.09;5058984;28;45334;-73
2021/09/09 09:45:20;;;;;;;;;42.67;35.67;;;;;22.35;76.20;100680.75;5058871;28;45383;-72
2021/09/09 09:47:45;;;;;;;;;33.67;31.00;;;;;22.29;76.21;100671.78;5057624;28;46097;-72
2021/09/09 09:50:19;;;;;;;;;40.00;35.00;;;;;22.33;76.60;100686.44;5056176;28;47975;-72
2021/09/09 09:52:45;;;;;;;;;37.00;33.67;;;;;22.31;76.36;100685.88;5058520;28;45445;-72
2021/09/09 09:55:11;;;;;;;;;40.33;34.67;;;;;22.27;75.45;100673.91;5058346;28;45280;-72
2021/09/09 09:57:52;;;;;;;;;42.00;36.33;;;;;22.28;75.76;100677.44;5058552;28;45523;-73
2021/09/09 10:00:17;;;;;;;;;38.67;33.33;;;;;22.29;76.35;100679.06;5058895;28;45415;-73
2021/09/09 10:02:43;;;;;;;;;37.67;33.67;;;;;22.33;75.84;100674.81;5058687;28;45343;-73
2021/09/09 10:05:11;;;;;;;;;38.67;32.67;;;;;22.40;75.84;100675.41;5057439;28;45397;-73
2021/09/09 10:07:37;;;;;;;;;38.33;33.33;;;;;22.50;76.55;100673.84;5058892;28;45469;-73
2021/09/09 10:10:03;;;;;;;;;39.33;32.67;;;;;22.56;75.61;100678.25;5058966;28;46001;-73
2021/09/09 10:12:29;;;;;;;;;38.67;33.33;;;;;22.64;75.99;100679.69;5058819;28;45213;-73
2021/09/09 10:14:56;;;;;;;;;37.00;33.00;;;;;22.72;75.56;100673.84;5061903;28;45347;-73
2021/09/09 10:17:24;;;;;;;;;41.33;35.00;;;;;22.79;75.93;100676.31;5061843;28;45353;-73
2021/09/09 10:19:50;;;;;;;;;35.00;31.33;;;;;22.82;75.55;100683.91;5061726;28;45331;-73
2021/09/09 10:22:18;;;;;;;;;42.67;35.67;;;;;22.92;75.13;100678.59;5061931;28;45400;-73
2021/09/09 10:24:45;;;;;;;;;41.67;35.67;;;;;23.10;74.86;100675.75;5062159;28;45403;-72
2021/09/09 10:27:32;;;;;;;;;39.67;34.00;;;;;23.24;74.48;100676.91;5060808;28;47244;-73
2021/09/09 10:30:04;;;;;;;;;38.33;33.33;;;;;23.35;74.35;100680.50;5057959;28;46339;-73
2021/09/09 10:32:29;;;;;;;;;41.67;34.67;;;;;23.47;74.18;100682.22;5061556;28;45370;-73
2021/09/09 10:35:17;;;;;;;;;37.00;32.67;;;;;23.57;73.63;100679.56;5059858;28;45333;-73
2021/09/09 10:37:47;;;;;;;;;37.67;32.67;;;;;23.66;72.60;100675.25;5061634;28;45481;-73
2021/09/09 10:40:35;;;;;;;;;38.00;33.00;;;;;23.75;72.89;100666.59;5061499;28;45335;-74
2021/09/09 10:43:12;;;;;;;;;34.67;31.67;;;;;23.92;73.17;100659.09;5062076;28;45248;-74
2021/09/09 10:45:44;;;;;;;;;42.67;36.33;;;;;24.04;72.42;100663.47;5060658;28;45337;-73
2021/09/09 10:48:19;;;;;;;;;38.67;33.00;;;;;24.07;71.80;100661.00;5061736;28;45497;-74
2021/09/09 10:51:00;;;;;;;;;37.67;33.00;;;;;24.16;71.82;100653.22;5061580;28;45301;-73
2021/09/09 10:53:51;;;;;;;;;32.00;30.67;;;;;24.28;72.03;100665.72;5061270;28;45327;-74
2021/09/09 10:56:20;;;;;;;;;43.00;37.00;;;;;24.36;71.58;100659.75;5051669;28;45547;-73
2021/09/09 10:58:46;;;;;;;;;31.67;28.67;;;;;24.37;71.57;100663.28;5070330;28;45599;-73
2021/09/09 11:01:12;;;;;;;;;34.00;29.67;;;;;24.38;71.55;100654.88;5055202;28;45678;-73
2021/09/09 11:03:48;;;;;;;;;38.00;31.67;;;;;24.46;70.95;100661.66;5060116;28;45485;-73
2021/09/09 11:06:15;;;;;;;;;39.00;33.33;;;;;24.54;71.05;100658.41;5057966;28;45335;-74